Station: Marrawah  

  Atmospheric Gas Attenuation - ITU Rec 676-11   ----------------- dB/100km -----------------
Date Time Temp RH % AH g/m3 Dew Point Wind Direction Speed kph Gust kph Barometer mB Rainfall Since 9am 24GHz 47GHz 76GHz 122GHz 134GHz 241GHz
08/05 09:00 11.7 79 8.26 8.3 33 1017.9 14 19.0 26.1 39.7 104.0 96.9 332.9
07/05 09:00 8.5 62 5.3 1.7 22 1018.1 13 12.8 22.3 29.4 76.5 61.7 209.0
06/05 09:00 14 94 11.34 13.1 28 1014.7 4 25.5 30.5 51.3 135.1 136.2 470.7
05/05 09:00 12.2 95 10.25 11.4 22 1015.6 5 23.2 29.3 47.7 125.5 123.7 426.6
04/05 09:00 14 89 10.74 12.2 19 1008.8 12 24.2 29.2 48.4 127.4 127.0 438.5
03/05 09:00 15.7 94 12.58 14.8 32 1011.7 9 28.0 32.0 55.5 146.4 150.8 521.7
02/05 09:00 18 70 10.75 12.6 28 1018.5 0 23.9 28.3 46.5 122.3 121.6 420.2
01/05 09:00 17.3 77 11.34 13.2 22 1023.3 0 25.2 29.7 49.6 130.5 131.3 453.9
30/04 09:00 16.8 91 13.01 15.4 28 1025.9 0 28.8 33.0 57.4 151.3 156.5 541.9
29/04 09:00 12 78 8.31 8.3 9 1030.1 0 19.0 26.6 40.3 105.5 98.2 337.3
28/04 09:00 13.6 87 10.24 11.5 19 1024.3 0.4 23.1 29.1 47.3 124.2 122.1 421.2
27/04 09:00 13.5 94 11 12.6 4 1024.8 0.4 24.7 30.5 50.7 133.3 133.2 460.1
26/04 09:00 16 84 11.44 13.3 22 1019.6 0 25.5 30.2 50.7 133.4 134.6 465.3
25/04 09:00 16.3 76 10.54 12.1 22 1026.3 0 23.6 28.8 47.0 123.5 122.2 421.9
24/04 09:00 16 88 11.99 14.1 28 1029.6 0.2 26.7 31.6 53.6 141.1 143.6 496.5
23/04 09:00 15.5 97 12.82 15 22 1028.1 1 28.5 33.2 57.6 151.8 156.7 542.1
22/04 09:00 15.3 85 11.1 12.9 37 1025.6 0 24.8 30.1 50.0 131.4 131.6 454.7
21/04 09:00 15 78 10 11.2 33 1028.7 0 22.5 28.4 45.6 119.8 117.0 403.5
20/04 09:00 12.3 90 9.77 10.8 28 1026.4 0 22.2 28.8 46.1 121.1 117.7 405.6
19/04 09:00 10.2 84 8 7.7 15 1023.3 0 18.5 26.3 39.6 103.7 95.7 328.3
18/04 09:00 11.5 67 6.92 5.7 22 1023.2 0.4 16.1 24.2 34.6 90.5 79.9 273.1
17/04 09:00 10.4 82 7.9 7.5 28 1014.9 4 18.2 25.8 38.7 101.5 93.4 320.5
16/04 09:00 15.2 92 11.94 14 28 1009.8 4 26.7 31.0 52.9 139.5 142.2 491.7
15/04 09:00 12.7 61 6.79 5.4 15 1018.1 3 15.8 23.5 33.4 87.3 76.7 262.1
14/04 09:00 13.2 97 11.14 12.8 19 1018.2 4 25.1 30.6 51.1 134.6 135.1 466.6
13/04 09:00 13.7 88 10.42 11.8 24 1016 2 23.5 29.1 47.6 125.1 123.7 426.8
12/04 09:00 9.5 80 7.28 6.3 19 1006.1 14 17.0 24.7 36.2 95.0 85.5 292.7
11/04 09:00 10.3 83 7.95 7.6 46 999.9 30 18.4 25.3 38.3 100.6 93.0 319.3
09/04 09:00 15.5 97 12.82 15 33 1006.2 2 28.6 32.3 56.4 148.9 154.1 533.3
08/04 09:00 12 68 7.25 6.3 9 1017.5 0.2 16.8 24.4 35.5 92.8 83.2 284.9
07/04 09:00 14 97 11.7 13.5 19 1010.3 19 26.2 31.0 52.7 138.9 141.0 487.4
06/04 09:00 15.9 71 9.61 10.8 37 1018.6 0 21.6 27.1 43.0 113.0 109.5 377.4
05/04 09:00 13 88 9.98 11.1 28 1027.9 22.6 29.0 46.7 122.6 119.7 412.8
04/04 09:00 9.5 80 7.28 6.2 15 1031.1 0 16.9 25.7 37.3 97.5 87.3 298.9
03/04 09:00 11.4 65 6.67 5.1 22 1026.3 4 15.6 24.0 33.8 88.3 77.0 262.9
02/04 09:00 15 92 11.8 13.8 22 1021.7 7 26.4 31.3 53.0 139.7 141.8 490.3
01/04 09:00 17.2 91 13.33 15.7 13 1013.5 0.6 29.5 32.9 57.9 152.7 159.0 550.5
31/03 09:00 15.7 93 12.44 14.5 28 1020.8 0 27.7 32.1 55.4 145.9 149.8 518.1
30/03 09:00 12.7 95 10.58 12 4 1022.6 0.2 23.9 30.0 49.2 129.4 128.3 442.7
29/03 09:00 13 91 10.32 11.5 9 1022.5 0 23.3 29.4 47.9 125.9 124.0 427.9
28/03 09:00 12.8 96 10.75 12.2 19 1021.6 2 24.2 30.2 49.8 131.1 130.5 450.4
27/03 09:00 9.8 74 6.87 5.4 22 1019.7 1 16.1 24.5 35.0 91.6 80.7 275.9
26/03 09:00 13 74 8.39 8.6 22 1013.4 1 19.2 25.8 39.4 103.3 96.6 332.2
25/03 09:00 17.2 98 14.35 16.9 15 1012.1 3 31.7 34.7 62.5 164.9 174.1 603.2
24/03 09:00 17 91 13.17 15.6 22 1015.7 0.6 29.2 32.8 57.4 151.4 157.3 544.6
23/03 09:00 15.5 92 12.16 14.3 0 1021.7 0 27.1 31.7 54.3 143.0 146.1 505.4
22/03 09:00 16.5 98 13.76 16.2 13 1021.2 0 30.5 34.3 60.8 160.4 167.9 581.3
21/03 09:00 14.5 92 11.44 13.2 6 1022 0 25.6 30.8 51.8 136.3 137.5 475.3
20/03 09:00 13.6 95 11.18 12.9 9 1020.6 0 25.1 30.6 51.2 134.7 135.2 467.1
19/03 09:00 13.7 97 11.49 13.3 9 1021 0.2 25.8 31.2 52.5 138.2 139.6 482.5
18/03 09:00 13.3 97 11.21 12.8 9 1023.2 0.6 25.2 30.9 51.6 135.9 136.5 471.4
17/03 09:00 14.5 87 10.82 12.3 19 1017.1 3 24.3 29.5 48.8 128.5 128.1 442.5
16/03 09:00 13 88 9.98 11.1 9 1018 0.2 22.6 28.6 46.2 121.4 118.8 409.6
15/03 09:00 14.2 78 9.52 10.4 9 1023.1 0 21.5 27.7 43.8 115.0 111.1 382.8
14/03 09:00 13.5 69 8.07 8 9 1028.3 0 18.5 25.7 38.5 100.7 93.0 319.3
13/03 09:00 13.3 63 7.28 6.4 28 1023.7 1 16.8 24.3 35.3 92.2 82.6 283.1
12/03 09:00 12.5 65 7.15 6.2 22 1008.9 11 16.6 23.8 34.5 90.4 80.8 276.7
11/03 09:00 15.2 98 12.72 14.9 19 1002.6 5 28.4 32.1 56.0 147.8 152.8 528.8
10/03 09:00 15.7 93 12.44 14.5 4 1012 0 27.7 31.8 54.9 144.7 148.8 514.7
09/03 09:00 16.2 77 10.62 12.2 28 1014.3 0 23.8 28.5 46.8 123.2 122.3 422.3
08/03 09:00 12 76 8.1 7.9 28 1020.8 0 18.6 25.9 39.0 102.2 94.6 324.9
07/03 09:00 14.4 94 11.62 13.5 9 1017 0 26.0 31.0 52.4 138.0 139.8 483.2
06/03 09:00 15.3 83 10.84 12.4 4 1015.6 2 24.3 29.3 48.4 127.3 126.9 438.4
05/03 09:00 16.8 86 12.29 14.5 28 1011.7 0 27.3 31.1 53.4 140.9 144.4 499.7
04/03 09:00 16.2 96 13.24 15.5 9 1015.4 0 29.4 33.2 58.3 153.8 160.0 553.8
03/03 09:00 13.5 82 9.59 10.6 28 1014.4 0.8 21.7 27.7 44.1 115.8 112.3 386.9
02/03 09:00 18.5 98 15.5 18.2 9 1006.2 19 34.1 36.1 66.4 175.5 187.7 651.0
01/03 09:00 17.5 85 12.67 14.9 37 1013.3 0.4 28.1 31.6 54.7 144.2 148.7 514.8
28/02 09:00 17.5 75 11.18 13 33 1020 0 24.9 29.3 48.6 128.0 128.4 443.9
27/02 09:00 14.3 89 10.93 12.5 28 1020.9 0 24.5 30.0 49.6 130.6 130.4 450.4
26/02 09:00 14.2 87 10.62 12 28 1024.5 3 23.9 29.6 48.5 127.6 126.5 436.8
25/02 09:00 14.5 62 7.71 7.4 28 1021.6 0 17.7 24.6 36.3 95.1 86.7 297.4
24/02 09:00 13.5 91 10.64 12 24 1013.8 0 24.0 29.4 48.5 127.7 126.9 438.1
23/02 09:00 18.5 85 13.45 16 22 1015 18 29.7 32.7 57.5 151.7 158.2 547.9
22/02 09:00 18.3 95 14.85 17.5 28 1002 0.4 32.8 34.7 63.3 167.2 177.8 616.2
21/02 09:00 14.7 83 10.45 11.9 9 1014 0 23.5 28.7 47.0 123.6 122.3 422.2
20/02 09:00 12.5 82 9.02 9.6 13 1016.3 0.2 20.6 27.1 42.3 111.1 106.0 365.0
19/02 09:00 15 97 12.44 14.5 33 1012.3 4 27.8 32.1 55.4 146.1 150.2 519.5
18/02 09:00 15.5 73 9.65 10.8 28 1005.8 13 21.8 26.8 42.8 112.6 109.4 377.3
17/02 09:00 18.5 87 13.76 16.3 41 1004.9 0 30.4 32.8 58.3 154.1 161.5 559.5
16/02 09:00 17.7 73 11.01 12.9 41 1016.6 0 24.5 28.8 47.6 125.4 125.4 433.5
15/02 09:00 16.2 75 10.34 11.8 19 1021.7 0 23.2 28.3 46.0 120.9 119.2 411.3
14/02 09:00 15.2 76 9.86 11.1 19 1022.1 0 22.2 27.9 44.6 117.2 114.2 393.7
13/02 09:00 13.4 89 10.35 11.7 13 1018.7 1 23.4 29.2 47.6 125.1 123.4 425.9
12/02 09:00 12.5 73 8.03 7.8 22 1008 8 18.4 25.2 37.9 99.5 92.1 316.2
11/02 09:00 18.8 94 15.14 17.8 19 1005.2 0 33.3 35.2 64.4 170.2 181.4 628.8
10/02 09:00 16.8 90 12.87 15.1 22 1016.5 0 28.6 32.3 56.3 148.3 153.4 530.9
09/02 09:00 16 98 13.35 15.7 9 1014.7 4 29.7 33.4 58.9 155.5 162.0 560.8
08/02 09:00 15.2 98 12.72 14.9 28 1016.8 2 28.3 32.7 56.8 149.7 154.5 534.5
07/02 09:00 16.8 72 10.29 11.7 9 1019 0 23.0 28.0 45.3 119.1 117.3 405.0
06/02 09:00 15.5 63 8.33 8.6 28 1019.2 0 18.9 25.2 38.2 100.0 93.3 320.7
05/02 09:00 16 69 9.4 10.3 15 1017.7 0 21.2 26.7 42.1 110.5 106.4 366.9
04/02 09:00 15.7 82 10.97 12.6 9 1015.2 0 24.6 29.3 48.6 128.0 128.0 442.4
03/02 09:00 15 78 10 11.3 13 1023.2 0 22.5 28.2 45.4 119.1 116.5 401.8
02/02 09:00 13.7 59 6.99 5.9 19 1025.2 4 16.2 23.8 34.1 88.9 78.7 269.2
01/02 09:00 11.5 94 9.71 10.5 24 1009.6 0.8 22.1 28.3 45.5 119.7 116.5 401.5
31/01 09:00 17.7 92 13.88 16.4 9 1011 0 30.7 33.6 59.8 157.9 165.7 574.2
30/01 09:00 17.3 82 12.08 14.2 24 1017.9 0 26.8 30.8 52.5 138.3 141.2 488.3
29/01 09:00 17.8 84 12.75 15.1 28 1021.7 0 28.2 31.9 55.3 145.7 150.2 520.0
28/01 09:00 15.6 90 11.97 14 19 1013.2 0 26.7 31.0 52.9 139.5 142.2 491.9

Last Refresh: 08-May-2026 12:09:22

Bureau of Meteorology